sensor_id;sensor_type;location;lat;lon;timestamp;P1;durP1;ratioP1;P2;durP2;ratioP2
46437;SDS011;32137;48.728;9.142;2023-07-16T00:01:44;44.97;;;17.10;;
46437;SDS011;32137;48.728;9.142;2023-07-16T00:04:09;35.60;;;15.05;;
46437;SDS011;32137;48.728;9.142;2023-07-16T00:06:35;31.92;;;14.32;;
46437;SDS011;32137;48.728;9.142;2023-07-16T00:09:00;34.90;;;13.02;;
46437;SDS011;32137;48.728;9.142;2023-07-16T00:11:26;44.67;;;17.42;;
46437;SDS011;32137;48.728;9.142;2023-07-16T00:13:51;42.38;;;16.67;;
46437;SDS011;32137;48.728;9.142;2023-07-16T00:16:17;53.08;;;18.38;;
46437;SDS011;32137;48.728;9.142;2023-07-16T00:18:43;88.95;;;25.50;;
46437;SDS011;32137;48.728;9.142;2023-07-16T00:21:09;74.78;;;22.20;;
46437;SDS011;32137;48.728;9.142;2023-07-16T00:23:35;73.28;;;21.52;;
46437;SDS011;32137;48.728;9.142;2023-07-16T00:26:01;48.03;;;17.02;;
46437;SDS011;32137;48.728;9.142;2023-07-16T00:28:27;46.20;;;16.38;;
46437;SDS011;32137;48.728;9.142;2023-07-16T00:30:52;28.45;;;13.05;;
46437;SDS011;32137;48.728;9.142;2023-07-16T00:33:18;39.20;;;14.57;;
46437;SDS011;32137;48.728;9.142;2023-07-16T00:35:47;58.60;;;19.50;;
46437;SDS011;32137;48.728;9.142;2023-07-16T00:38:14;22.45;;;10.63;;
46437;SDS011;32137;48.728;9.142;2023-07-16T00:40:39;58.30;;;18.30;;
46437;SDS011;32137;48.728;9.142;2023-07-16T00:43:05;22.65;;;9.57;;
46437;SDS011;32137;48.728;9.142;2023-07-16T00:45:30;14.95;;;7.72;;
46437;SDS011;32137;48.728;9.142;2023-07-16T00:47:56;31.70;;;11.88;;
46437;SDS011;32137;48.728;9.142;2023-07-16T00:50:22;27.55;;;11.43;;
46437;SDS011;32137;48.728;9.142;2023-07-16T00:52:47;34.03;;;13.43;;
46437;SDS011;32137;48.728;9.142;2023-07-16T00:55:13;27.90;;;11.57;;
46437;SDS011;32137;48.728;9.142;2023-07-16T00:57:39;22.85;;;9.43;;
46437;SDS011;32137;48.728;9.142;2023-07-16T01:00:05;25.60;;;9.95;;
46437;SDS011;32137;48.728;9.142;2023-07-16T01:02:31;18.05;;;8.55;;
46437;SDS011;32137;48.728;9.142;2023-07-16T01:04:57;33.42;;;12.40;;
46437;SDS011;32137;48.728;9.142;2023-07-16T01:07:23;29.05;;;11.70;;
46437;SDS011;32137;48.728;9.142;2023-07-16T01:09:52;30.08;;;11.27;;
46437;SDS011;32137;48.728;9.142;2023-07-16T01:12:20;31.48;;;12.25;;
46437;SDS011;32137;48.728;9.142;2023-07-16T01:14:47;21.40;;;9.50;;
46437;SDS011;32137;48.728;9.142;2023-07-16T01:17:12;27.35;;;9.75;;
46437;SDS011;32137;48.728;9.142;2023-07-16T01:19:38;25.48;;;9.75;;
46437;SDS011;32137;48.728;9.142;2023-07-16T01:25:06;15.40;;;7.32;;
46437;SDS011;32137;48.728;9.142;2023-07-16T01:28:05;16.70;;;7.83;;
46437;SDS011;32137;48.728;9.142;2023-07-16T01:30:40;18.27;;;8.02;;
46437;SDS011;32137;48.728;9.142;2023-07-16T01:33:09;14.05;;;6.45;;
46437;SDS011;32137;48.728;9.142;2023-07-16T01:35:37;21.08;;;9.43;;
46437;SDS011;32137;48.728;9.142;2023-07-16T01:38:05;19.88;;;8.30;;
46437;SDS011;32137;48.728;9.142;2023-07-16T01:40:30;14.57;;;6.47;;
46437;SDS011;32137;48.728;9.142;2023-07-16T01:42:56;13.25;;;6.85;;
46437;SDS011;32137;48.728;9.142;2023-07-16T01:45:22;12.50;;;6.45;;
46437;SDS011;32137;48.728;9.142;2023-07-16T01:52:45;27.30;;;10.18;;
46437;SDS011;32137;48.728;9.142;2023-07-16T01:55:10;14.40;;;7.22;;
46437;SDS011;32137;48.728;9.142;2023-07-16T01:57:36;14.10;;;6.95;;
46437;SDS011;32137;48.728;9.142;2023-07-16T02:00:02;11.90;;;6.45;;
46437;SDS011;32137;48.728;9.142;2023-07-16T02:02:28;23.58;;;8.35;;
46437;SDS011;32137;48.728;9.142;2023-07-16T02:04:53;15.00;;;7.78;;
46437;SDS011;32137;48.728;9.142;2023-07-16T02:07:18;14.35;;;7.32;;
46437;SDS011;32137;48.728;9.142;2023-07-16T02:09:44;11.55;;;6.43;;
46437;SDS011;32137;48.728;9.142;2023-07-16T02:12:10;16.35;;;7.25;;
46437;SDS011;32137;48.728;9.142;2023-07-16T02:14:35;17.35;;;6.90;;
46437;SDS011;32137;48.728;9.142;2023-07-16T02:17:01;10.75;;;5.65;;
46437;SDS011;32137;48.728;9.142;2023-07-16T02:19:26;12.45;;;5.95;;
46437;SDS011;32137;48.728;9.142;2023-07-16T02:21:52;10.75;;;6.22;;
46437;SDS011;32137;48.728;9.142;2023-07-16T02:24:17;11.25;;;5.85;;
46437;SDS011;32137;48.728;9.142;2023-07-16T02:26:43;16.35;;;5.70;;
46437;SDS011;32137;48.728;9.142;2023-07-16T02:29:08;14.82;;;7.10;;
46437;SDS011;32137;48.728;9.142;2023-07-16T02:31:34;12.05;;;6.60;;
46437;SDS011;32137;48.728;9.142;2023-07-16T02:34:01;14.00;;;6.50;;
46437;SDS011;32137;48.728;9.142;2023-07-16T02:36:26;10.68;;;6.00;;
46437;SDS011;32137;48.728;9.142;2023-07-16T02:38:52;9.50;;;5.70;;
46437;SDS011;32137;48.728;9.142;2023-07-16T02:41:17;11.02;;;6.10;;
46437;SDS011;32137;48.728;9.142;2023-07-16T02:43:44;14.05;;;6.72;;
46437;SDS011;32137;48.728;9.142;2023-07-16T02:46:10;7.63;;;5.00;;
46437;SDS011;32137;48.728;9.142;2023-07-16T02:48:36;12.95;;;5.40;;
46437;SDS011;32137;48.728;9.142;2023-07-16T02:51:01;15.02;;;5.90;;
46437;SDS011;32137;48.728;9.142;2023-07-16T02:53:27;15.85;;;6.78;;
46437;SDS011;32137;48.728;9.142;2023-07-16T02:55:52;13.02;;;6.50;;
46437;SDS011;32137;48.728;9.142;2023-07-16T02:58:18;11.27;;;6.53;;
46437;SDS011;32137;48.728;9.142;2023-07-16T03:00:43;9.38;;;5.25;;
46437;SDS011;32137;48.728;9.142;2023-07-16T03:03:09;8.75;;;5.20;;
46437;SDS011;32137;48.728;9.142;2023-07-16T03:05:34;12.57;;;5.63;;
46437;SDS011;32137;48.728;9.142;2023-07-16T03:08:00;11.57;;;5.97;;
46437;SDS011;32137;48.728;9.142;2023-07-16T03:10:26;11.65;;;5.97;;
46437;SDS011;32137;48.728;9.142;2023-07-16T03:12:51;11.00;;;5.68;;
46437;SDS011;32137;48.728;9.142;2023-07-16T03:15:17;10.98;;;5.25;;
46437;SDS011;32137;48.728;9.142;2023-07-16T03:17:43;8.68;;;4.93;;
46437;SDS011;32137;48.728;9.142;2023-07-16T03:20:08;9.43;;;5.30;;
46437;SDS011;32137;48.728;9.142;2023-07-16T03:22:35;8.45;;;5.13;;
46437;SDS011;32137;48.728;9.142;2023-07-16T03:25:00;11.00;;;6.28;;
46437;SDS011;32137;48.728;9.142;2023-07-16T03:27:27;11.10;;;5.15;;
46437;SDS011;32137;48.728;9.142;2023-07-16T03:29:53;11.02;;;5.70;;
46437;SDS011;32137;48.728;9.142;2023-07-16T03:32:19;11.50;;;6.93;;
46437;SDS011;32137;48.728;9.142;2023-07-16T03:34:44;8.43;;;5.55;;
46437;SDS011;32137;48.728;9.142;2023-07-16T03:37:10;13.80;;;5.30;;
46437;SDS011;32137;48.728;9.142;2023-07-16T03:39:36;14.15;;;5.63;;
46437;SDS011;32137;48.728;9.142;2023-07-16T03:42:01;9.05;;;5.20;;
46437;SDS011;32137;48.728;9.142;2023-07-16T03:44:28;13.85;;;5.28;;
46437;SDS011;32137;48.728;9.142;2023-07-16T03:46:54;9.68;;;5.05;;
46437;SDS011;32137;48.728;9.142;2023-07-16T03:49:19;12.68;;;5.20;;
46437;SDS011;32137;48.728;9.142;2023-07-16T03:51:45;7.97;;;5.03;;
46437;SDS011;32137;48.728;9.142;2023-07-16T03:54:10;8.90;;;5.20;;
46437;SDS011;32137;48.728;9.142;2023-07-16T03:56:36;14.63;;;5.00;;
46437;SDS011;32137;48.728;9.142;2023-07-16T03:59:01;8.85;;;5.13;;
46437;SDS011;32137;48.728;9.142;2023-07-16T04:01:27;10.38;;;4.75;;
46437;SDS011;32137;48.728;9.142;2023-07-16T04:03:53;11.02;;;5.00;;
46437;SDS011;32137;48.728;9.142;2023-07-16T04:06:18;11.55;;;5.07;;
46437;SDS011;32137;48.728;9.142;2023-07-16T04:08:44;9.23;;;5.20;;
46437;SDS011;32137;48.728;9.142;2023-07-16T04:11:09;9.57;;;4.63;;
46437;SDS011;32137;48.728;9.142;2023-07-16T04:13:35;11.18;;;4.20;;
46437;SDS011;32137;48.728;9.142;2023-07-16T04:16:00;9.45;;;5.05;;
46437;SDS011;32137;48.728;9.142;2023-07-16T04:18:26;9.35;;;4.40;;
46437;SDS011;32137;48.728;9.142;2023-07-16T04:20:52;9.85;;;4.25;;
46437;SDS011;32137;48.728;9.142;2023-07-16T04:23:17;9.82;;;4.72;;
46437;SDS011;32137;48.728;9.142;2023-07-16T04:25:43;8.45;;;4.47;;
46437;SDS011;32137;48.728;9.142;2023-07-16T04:28:09;10.13;;;4.60;;
46437;SDS011;32137;48.728;9.142;2023-07-16T04:30:35;8.73;;;3.95;;
46437;SDS011;32137;48.728;9.142;2023-07-16T04:33:02;8.90;;;4.57;;
46437;SDS011;32137;48.728;9.142;2023-07-16T04:35:28;6.97;;;4.72;;
46437;SDS011;32137;48.728;9.142;2023-07-16T04:37:53;11.00;;;4.82;;
46437;SDS011;32137;48.728;9.142;2023-07-16T04:40:19;4.82;;;3.97;;
46437;SDS011;32137;48.728;9.142;2023-07-16T04:42:44;10.40;;;4.30;;
46437;SDS011;32137;48.728;9.142;2023-07-16T04:45:10;10.70;;;4.90;;
46437;SDS011;32137;48.728;9.142;2023-07-16T04:47:36;9.60;;;4.40;;
46437;SDS011;32137;48.728;9.142;2023-07-16T04:50:02;8.30;;;4.25;;
46437;SDS011;32137;48.728;9.142;2023-07-16T04:52:27;8.95;;;4.47;;
46437;SDS011;32137;48.728;9.142;2023-07-16T04:54:53;5.80;;;3.42;;
46437;SDS011;32137;48.728;9.142;2023-07-16T04:57:19;9.05;;;4.70;;
46437;SDS011;32137;48.728;9.142;2023-07-16T04:59:44;10.20;;;4.00;;
46437;SDS011;32137;48.728;9.142;2023-07-16T05:02:10;6.25;;;3.20;;
46437;SDS011;32137;48.728;9.142;2023-07-16T05:04:35;11.93;;;3.83;;
46437;SDS011;32137;48.728;9.142;2023-07-16T05:07:01;6.10;;;3.83;;
46437;SDS011;32137;48.728;9.142;2023-07-16T05:09:28;8.02;;;4.43;;
46437;SDS011;32137;48.728;9.142;2023-07-16T05:11:53;5.15;;;3.42;;
46437;SDS011;32137;48.728;9.142;2023-07-16T05:14:19;7.05;;;3.83;;
46437;SDS011;32137;48.728;9.142;2023-07-16T05:16:45;8.15;;;3.55;;
46437;SDS011;32137;48.728;9.142;2023-07-16T05:19:10;5.40;;;3.60;;
46437;SDS011;32137;48.728;9.142;2023-07-16T05:21:36;7.57;;;3.95;;
46437;SDS011;32137;48.728;9.142;2023-07-16T05:24:01;13.77;;;4.50;;
46437;SDS011;32137;48.728;9.142;2023-07-16T05:26:27;8.18;;;3.38;;
46437;SDS011;32137;48.728;9.142;2023-07-16T05:28:53;12.05;;;3.53;;
46437;SDS011;32137;48.728;9.142;2023-07-16T05:31:19;15.55;;;4.13;;
46437;SDS011;32137;48.728;9.142;2023-07-16T05:33:44;5.78;;;3.55;;
46437;SDS011;32137;48.728;9.142;2023-07-16T05:36:10;12.35;;;4.40;;
46437;SDS011;32137;48.728;9.142;2023-07-16T05:38:35;11.20;;;3.63;;
46437;SDS011;32137;48.728;9.142;2023-07-16T05:41:01;6.30;;;3.10;;
46437;SDS011;32137;48.728;9.142;2023-07-16T05:43:28;14.05;;;3.42;;
46437;SDS011;32137;48.728;9.142;2023-07-16T05:45:53;4.88;;;2.80;;
46437;SDS011;32137;48.728;9.142;2023-07-16T05:48:19;12.70;;;2.80;;
46437;SDS011;32137;48.728;9.142;2023-07-16T05:50:45;12.30;;;4.15;;
46437;SDS011;32137;48.728;9.142;2023-07-16T05:53:10;12.30;;;3.50;;
46437;SDS011;32137;48.728;9.142;2023-07-16T05:55:36;5.65;;;2.83;;
46437;SDS011;32137;48.728;9.142;2023-07-16T05:58:04;17.98;;;3.72;;
46437;SDS011;32137;48.728;9.142;2023-07-16T06:00:29;7.78;;;3.10;;
46437;SDS011;32137;48.728;9.142;2023-07-16T06:02:55;6.07;;;2.47;;
46437;SDS011;32137;48.728;9.142;2023-07-16T06:05:20;8.45;;;2.72;;
46437;SDS011;32137;48.728;9.142;2023-07-16T06:07:46;7.72;;;3.20;;
46437;SDS011;32137;48.728;9.142;2023-07-16T06:10:12;8.18;;;2.95;;
46437;SDS011;32137;48.728;9.142;2023-07-16T06:12:37;4.80;;;2.92;;
46437;SDS011;32137;48.728;9.142;2023-07-16T06:15:03;6.57;;;2.63;;
46437;SDS011;32137;48.728;9.142;2023-07-16T06:17:29;7.45;;;2.80;;
46437;SDS011;32137;48.728;9.142;2023-07-16T06:19:54;8.60;;;2.72;;
46437;SDS011;32137;48.728;9.142;2023-07-16T06:22:20;5.88;;;3.22;;
46437;SDS011;32137;48.728;9.142;2023-07-16T06:24:46;7.57;;;3.45;;
46437;SDS011;32137;48.728;9.142;2023-07-16T06:27:12;5.55;;;2.42;;
46437;SDS011;32137;48.728;9.142;2023-07-16T06:29:37;5.65;;;2.60;;
46437;SDS011;32137;48.728;9.142;2023-07-16T06:32:03;4.70;;;2.38;;
46437;SDS011;32137;48.728;9.142;2023-07-16T06:34:29;7.93;;;2.65;;
46437;SDS011;32137;48.728;9.142;2023-07-16T06:36:54;8.10;;;2.75;;
46437;SDS011;32137;48.728;9.142;2023-07-16T06:39:20;10.88;;;4.38;;
46437;SDS011;32137;48.728;9.142;2023-07-16T06:41:45;15.48;;;3.40;;
46437;SDS011;32137;48.728;9.142;2023-07-16T06:44:11;14.68;;;3.20;;
46437;SDS011;32137;48.728;9.142;2023-07-16T06:46:36;8.00;;;3.38;;
46437;SDS011;32137;48.728;9.142;2023-07-16T06:49:02;6.93;;;2.80;;
46437;SDS011;32137;48.728;9.142;2023-07-16T06:51:27;3.92;;;2.28;;
46437;SDS011;32137;48.728;9.142;2023-07-16T06:53:55;3.97;;;2.25;;
46437;SDS011;32137;48.728;9.142;2023-07-16T06:56:20;8.07;;;2.53;;
46437;SDS011;32137;48.728;9.142;2023-07-16T06:58:46;6.65;;;2.28;;
46437;SDS011;32137;48.728;9.142;2023-07-16T07:01:11;6.47;;;2.55;;
46437;SDS011;32137;48.728;9.142;2023-07-16T07:03:37;12.90;;;3.35;;
46437;SDS011;32137;48.728;9.142;2023-07-16T07:06:03;7.03;;;2.13;;
46437;SDS011;32137;48.728;9.142;2023-07-16T07:08:29;6.05;;;2.17;;
46437;SDS011;32137;48.728;9.142;2023-07-16T07:10:54;9.13;;;2.92;;
46437;SDS011;32137;48.728;9.142;2023-07-16T07:13:20;4.05;;;2.33;;
46437;SDS011;32137;48.728;9.142;2023-07-16T07:15:46;8.07;;;2.47;;
46437;SDS011;32137;48.728;9.142;2023-07-16T07:18:11;5.32;;;2.72;;
46437;SDS011;32137;48.728;9.142;2023-07-16T07:20:38;7.85;;;2.45;;
46437;SDS011;32137;48.728;9.142;2023-07-16T07:23:04;6.43;;;2.13;;
46437;SDS011;32137;48.728;9.142;2023-07-16T07:25:30;11.40;;;2.50;;
46437;SDS011;32137;48.728;9.142;2023-07-16T07:27:56;4.70;;;2.40;;
46437;SDS011;32137;48.728;9.142;2023-07-16T07:30:21;6.15;;;2.90;;
46437;SDS011;32137;48.728;9.142;2023-07-16T07:32:47;6.45;;;2.53;;
46437;SDS011;32137;48.728;9.142;2023-07-16T07:35:12;4.82;;;2.40;;
46437;SDS011;32137;48.728;9.142;2023-07-16T07:37:38;10.25;;;2.33;;
46437;SDS011;32137;48.728;9.142;2023-07-16T07:40:03;5.10;;;2.13;;
46437;SDS011;32137;48.728;9.142;2023-07-16T07:42:29;4.00;;;1.83;;
46437;SDS011;32137;48.728;9.142;2023-07-16T07:44:55;4.68;;;2.42;;
46437;SDS011;32137;48.728;9.142;2023-07-16T07:47:21;7.85;;;2.30;;
46437;SDS011;32137;48.728;9.142;2023-07-16T07:49:46;8.07;;;2.28;;
46437;SDS011;32137;48.728;9.142;2023-07-16T07:52:12;7.20;;;2.00;;
46437;SDS011;32137;48.728;9.142;2023-07-16T07:54:37;5.53;;;2.40;;
46437;SDS011;32137;48.728;9.142;2023-07-16T07:57:03;5.15;;;1.98;;
46437;SDS011;32137;48.728;9.142;2023-07-16T07:59:30;8.30;;;2.78;;
46437;SDS011;32137;48.728;9.142;2023-07-16T08:01:56;4.05;;;2.30;;
46437;SDS011;32137;48.728;9.142;2023-07-16T08:04:22;8.20;;;2.72;;
46437;SDS011;32137;48.728;9.142;2023-07-16T08:06:49;4.35;;;1.98;;
46437;SDS011;32137;48.728;9.142;2023-07-16T08:09:15;4.82;;;2.42;;
46437;SDS011;32137;48.728;9.142;2023-07-16T08:11:40;11.70;;;3.10;;
46437;SDS011;32137;48.728;9.142;2023-07-16T08:14:06;8.77;;;2.25;;
46437;SDS011;32137;48.728;9.142;2023-07-16T08:16:31;10.63;;;2.15;;
46437;SDS011;32137;48.728;9.142;2023-07-16T08:18:57;5.63;;;2.03;;
46437;SDS011;32137;48.728;9.142;2023-07-16T08:21:22;4.35;;;1.80;;
46437;SDS011;32137;48.728;9.142;2023-07-16T08:23:48;6.47;;;1.80;;
46437;SDS011;32137;48.728;9.142;2023-07-16T08:26:14;5.28;;;1.90;;
46437;SDS011;32137;48.728;9.142;2023-07-16T08:28:40;6.20;;;2.63;;
46437;SDS011;32137;48.728;9.142;2023-07-16T08:31:05;8.45;;;2.45;;
46437;SDS011;32137;48.728;9.142;2023-07-16T08:33:31;6.22;;;2.22;;
46437;SDS011;32137;48.728;9.142;2023-07-16T08:35:56;8.55;;;2.53;;
46437;SDS011;32137;48.728;9.142;2023-07-16T08:38:22;3.45;;;2.28;;
46437;SDS011;32137;48.728;9.142;2023-07-16T08:40:47;4.55;;;1.83;;
46437;SDS011;32137;48.728;9.142;2023-07-16T08:43:16;13.80;;;4.07;;
46437;SDS011;32137;48.728;9.142;2023-07-16T08:45:42;3.88;;;1.80;;
46437;SDS011;32137;48.728;9.142;2023-07-16T08:48:11;4.68;;;2.30;;
46437;SDS011;32137;48.728;9.142;2023-07-16T08:50:37;8.63;;;2.08;;
46437;SDS011;32137;48.728;9.142;2023-07-16T08:53:06;4.07;;;2.17;;
46437;SDS011;32137;48.728;9.142;2023-07-16T08:55:33;6.45;;;2.22;;
46437;SDS011;32137;48.728;9.142;2023-07-16T08:58:01;4.47;;;1.95;;
46437;SDS011;32137;48.728;9.142;2023-07-16T09:00:29;5.25;;;2.15;;
46437;SDS011;32137;48.728;9.142;2023-07-16T09:02:55;4.72;;;2.33;;
46437;SDS011;32137;48.728;9.142;2023-07-16T09:05:21;4.82;;;1.75;;
46437;SDS011;32137;48.728;9.142;2023-07-16T09:07:47;5.05;;;1.63;;
46437;SDS011;32137;48.728;9.142;2023-07-16T09:10:13;5.45;;;1.90;;
46437;SDS011;32137;48.728;9.142;2023-07-16T09:12:42;4.78;;;2.28;;
46437;SDS011;32137;48.728;9.142;2023-07-16T09:15:17;4.43;;;1.65;;
46437;SDS011;32137;48.728;9.142;2023-07-16T09:17:46;3.67;;;1.75;;
46437;SDS011;32137;48.728;9.142;2023-07-16T09:20:14;6.25;;;2.20;;
46437;SDS011;32137;48.728;9.142;2023-07-16T09:22:41;4.22;;;1.50;;
46437;SDS011;32137;48.728;9.142;2023-07-16T09:25:07;7.32;;;2.40;;
46437;SDS011;32137;48.728;9.142;2023-07-16T09:27:34;6.18;;;1.75;;
46437;SDS011;32137;48.728;9.142;2023-07-16T09:29:59;3.70;;;1.77;;
46437;SDS011;32137;48.728;9.142;2023-07-16T09:32:34;3.10;;;1.52;;
46437;SDS011;32137;48.728;9.142;2023-07-16T09:35:00;4.43;;;1.60;;
46437;SDS011;32137;48.728;9.142;2023-07-16T09:37:26;10.02;;;2.70;;
46437;SDS011;32137;48.728;9.142;2023-07-16T09:39:53;9.20;;;3.00;;
46437;SDS011;32137;48.728;9.142;2023-07-16T09:42:19;6.03;;;2.55;;
46437;SDS011;32137;48.728;9.142;2023-07-16T09:44:45;4.57;;;1.83;;
46437;SDS011;32137;48.728;9.142;2023-07-16T09:47:11;5.15;;;1.98;;
46437;SDS011;32137;48.728;9.142;2023-07-16T09:49:38;3.42;;;2.03;;
46437;SDS011;32137;48.728;9.142;2023-07-16T09:52:03;4.05;;;2.08;;
46437;SDS011;32137;48.728;9.142;2023-07-16T09:54:31;3.97;;;2.00;;
46437;SDS011;32137;48.728;9.142;2023-07-16T09:56:58;8.40;;;2.85;;
46437;SDS011;32137;48.728;9.142;2023-07-16T09:59:29;4.65;;;2.05;;
46437;SDS011;32137;48.728;9.142;2023-07-16T10:01:57;8.45;;;1.98;;
46437;SDS011;32137;48.728;9.142;2023-07-16T10:04:23;3.80;;;1.90;;
46437;SDS011;32137;48.728;9.142;2023-07-16T10:06:57;4.43;;;2.15;;
46437;SDS011;32137;48.728;9.142;2023-07-16T10:09:34;5.40;;;2.17;;
46437;SDS011;32137;48.728;9.142;2023-07-16T10:12:07;8.10;;;2.30;;
46437;SDS011;32137;48.728;9.142;2023-07-16T10:14:41;5.53;;;2.00;;
46437;SDS011;32137;48.728;9.142;2023-07-16T10:17:11;7.25;;;2.58;;
46437;SDS011;32137;48.728;9.142;2023-07-16T10:19:51;6.78;;;2.33;;
46437;SDS011;32137;48.728;9.142;2023-07-16T10:22:30;3.50;;;1.65;;
46437;SDS011;32137;48.728;9.142;2023-07-16T10:25:00;8.57;;;2.42;;
46437;SDS011;32137;48.728;9.142;2023-07-16T10:27:30;3.25;;;1.58;;
46437;SDS011;32137;48.728;9.142;2023-07-16T10:29:58;2.80;;;2.40;;
46437;SDS011;32137;48.728;9.142;2023-07-16T10:32:27;5.15;;;2.15;;
46437;SDS011;32137;48.728;9.142;2023-07-16T10:34:54;4.30;;;1.80;;
46437;SDS011;32137;48.728;9.142;2023-07-16T10:37:19;4.70;;;2.15;;
46437;SDS011;32137;48.728;9.142;2023-07-16T10:39:49;3.03;;;1.60;;
46437;SDS011;32137;48.728;9.142;2023-07-16T10:42:16;5.82;;;1.80;;
46437;SDS011;32137;48.728;9.142;2023-07-16T10:44:42;3.17;;;1.80;;
46437;SDS011;32137;48.728;9.142;2023-07-16T10:47:08;3.17;;;1.70;;
46437;SDS011;32137;48.728;9.142;2023-07-16T10:49:42;4.20;;;1.83;;
46437;SDS011;32137;48.728;9.142;2023-07-16T10:52:09;3.97;;;1.70;;
46437;SDS011;32137;48.728;9.142;2023-07-16T10:54:34;8.77;;;1.77;;
46437;SDS011;32137;48.728;9.142;2023-07-16T10:57:00;4.95;;;2.78;;
46437;SDS011;32137;48.728;9.142;2023-07-16T10:59:26;6.55;;;2.97;;
46437;SDS011;32137;48.728;9.142;2023-07-16T11:01:51;4.82;;;2.13;;
46437;SDS011;32137;48.728;9.142;2023-07-16T11:04:17;6.53;;;2.42;;
46437;SDS011;32137;48.728;9.142;2023-07-16T11:06:42;4.63;;;1.75;;
46437;SDS011;32137;48.728;9.142;2023-07-16T11:09:08;5.68;;;1.98;;
46437;SDS011;32137;48.728;9.142;2023-07-16T11:11:34;3.67;;;1.67;;
46437;SDS011;32137;48.728;9.142;2023-07-16T11:13:59;3.08;;;1.73;;
46437;SDS011;32137;48.728;9.142;2023-07-16T11:16:29;3.92;;;1.90;;
46437;SDS011;32137;48.728;9.142;2023-07-16T11:19:04;42.17;;;16.08;;
46437;SDS011;32137;48.728;9.142;2023-07-16T11:21:30;5.55;;;1.90;;
46437;SDS011;32137;48.728;9.142;2023-07-16T11:24:12;3.45;;;1.60;;
46437;SDS011;32137;48.728;9.142;2023-07-16T11:26:39;4.53;;;1.87;;
46437;SDS011;32137;48.728;9.142;2023-07-16T11:29:14;7.88;;;2.33;;
46437;SDS011;32137;48.728;9.142;2023-07-16T11:31:40;5.57;;;2.00;;
46437;SDS011;32137;48.728;9.142;2023-07-16T11:34:14;11.93;;;2.05;;
46437;SDS011;32137;48.728;9.142;2023-07-16T11:39:06;4.15;;;2.03;;
46437;SDS011;32137;48.728;9.142;2023-07-16T11:41:31;5.55;;;2.17;;
46437;SDS011;32137;48.728;9.142;2023-07-16T11:44:00;2.97;;;1.75;;
46437;SDS011;32137;48.728;9.142;2023-07-16T11:46:30;3.92;;;1.67;;
46437;SDS011;32137;48.728;9.142;2023-07-16T11:48:58;3.88;;;1.80;;
46437;SDS011;32137;48.728;9.142;2023-07-16T11:51:24;5.07;;;1.83;;
46437;SDS011;32137;48.728;9.142;2023-07-16T11:53:49;2.95;;;1.85;;
46437;SDS011;32137;48.728;9.142;2023-07-16T11:56:15;2.90;;;1.83;;
46437;SDS011;32137;48.728;9.142;2023-07-16T11:58:40;6.57;;;1.80;;
46437;SDS011;32137;48.728;9.142;2023-07-16T12:01:06;4.15;;;1.98;;
46437;SDS011;32137;48.728;9.142;2023-07-16T12:03:32;3.75;;;1.95;;
46437;SDS011;32137;48.728;9.142;2023-07-16T12:05:57;3.92;;;1.50;;
46437;SDS011;32137;48.728;9.142;2023-07-16T12:08:23;4.15;;;2.40;;
46437;SDS011;32137;48.728;9.142;2023-07-16T12:10:48;3.42;;;1.67;;
46437;SDS011;32137;48.728;9.142;2023-07-16T12:13:14;3.63;;;1.85;;
46437;SDS011;32137;48.728;9.142;2023-07-16T12:15:40;3.47;;;1.55;;
46437;SDS011;32137;48.728;9.142;2023-07-16T12:18:05;4.32;;;1.83;;
46437;SDS011;32137;48.728;9.142;2023-07-16T12:20:31;3.05;;;1.85;;
46437;SDS011;32137;48.728;9.142;2023-07-16T12:22:57;6.75;;;1.48;;
46437;SDS011;32137;48.728;9.142;2023-07-16T12:25:22;5.10;;;2.45;;
46437;SDS011;32137;48.728;9.142;2023-07-16T12:27:48;3.13;;;1.70;;
46437;SDS011;32137;48.728;9.142;2023-07-16T12:30:13;3.75;;;2.00;;
46437;SDS011;32137;48.728;9.142;2023-07-16T12:32:39;3.15;;;1.67;;
46437;SDS011;32137;48.728;9.142;2023-07-16T12:35:04;2.53;;;1.70;;
46437;SDS011;32137;48.728;9.142;2023-07-16T12:37:30;3.13;;;1.65;;
46437;SDS011;32137;48.728;9.142;2023-07-16T12:39:55;5.10;;;1.95;;
46437;SDS011;32137;48.728;9.142;2023-07-16T12:42:21;2.50;;;1.65;;
46437;SDS011;32137;48.728;9.142;2023-07-16T12:44:47;3.55;;;1.83;;
46437;SDS011;32137;48.728;9.142;2023-07-16T12:47:14;5.18;;;1.83;;
46437;SDS011;32137;48.728;9.142;2023-07-16T12:49:40;4.63;;;1.73;;
46437;SDS011;32137;48.728;9.142;2023-07-16T12:52:06;5.75;;;1.85;;
46437;SDS011;32137;48.728;9.142;2023-07-16T12:54:32;3.70;;;1.70;;
46437;SDS011;32137;48.728;9.142;2023-07-16T12:56:57;5.40;;;2.05;;
46437;SDS011;32137;48.728;9.142;2023-07-16T12:59:23;5.97;;;1.58;;
46437;SDS011;32137;48.728;9.142;2023-07-16T13:01:49;6.05;;;2.17;;
46437;SDS011;32137;48.728;9.142;2023-07-16T13:04:15;3.92;;;1.40;;
46437;SDS011;32137;48.728;9.142;2023-07-16T13:06:41;6.78;;;2.22;;
46437;SDS011;32137;48.728;9.142;2023-07-16T13:09:07;2.78;;;1.73;;
46437;SDS011;32137;48.728;9.142;2023-07-16T13:11:33;4.72;;;1.98;;
46437;SDS011;32137;48.728;9.142;2023-07-16T13:13:58;5.20;;;1.77;;
46437;SDS011;32137;48.728;9.142;2023-07-16T13:16:24;12.68;;;2.08;;
46437;SDS011;32137;48.728;9.142;2023-07-16T13:18:49;3.50;;;1.65;;
46437;SDS011;32137;48.728;9.142;2023-07-16T13:21:15;3.88;;;1.50;;
46437;SDS011;32137;48.728;9.142;2023-07-16T13:23:41;3.00;;;1.92;;
46437;SDS011;32137;48.728;9.142;2023-07-16T13:26:06;3.88;;;1.50;;
46437;SDS011;32137;48.728;9.142;2023-07-16T13:28:32;4.00;;;2.05;;
46437;SDS011;32137;48.728;9.142;2023-07-16T13:30:58;5.85;;;1.60;;
46437;SDS011;32137;48.728;9.142;2023-07-16T13:33:23;2.00;;;1.50;;
46437;SDS011;32137;48.728;9.142;2023-07-16T13:35:49;2.58;;;1.55;;
46437;SDS011;32137;48.728;9.142;2023-07-16T13:38:15;4.55;;;1.60;;
46437;SDS011;32137;48.728;9.142;2023-07-16T13:40:40;5.53;;;1.60;;
46437;SDS011;32137;48.728;9.142;2023-07-16T13:43:06;3.28;;;1.70;;
46437;SDS011;32137;48.728;9.142;2023-07-16T13:45:31;5.07;;;1.60;;
46437;SDS011;32137;48.728;9.142;2023-07-16T13:47:58;2.63;;;1.95;;
46437;SDS011;32137;48.728;9.142;2023-07-16T13:50:24;3.35;;;1.70;;
46437;SDS011;32137;48.728;9.142;2023-07-16T13:52:49;2.33;;;1.45;;
46437;SDS011;32137;48.728;9.142;2023-07-16T13:55:15;4.75;;;2.00;;
46437;SDS011;32137;48.728;9.142;2023-07-16T13:57:41;3.58;;;1.63;;
46437;SDS011;32137;48.728;9.142;2023-07-16T14:00:08;6.43;;;2.55;;
46437;SDS011;32137;48.728;9.142;2023-07-16T14:02:37;3.70;;;1.88;;
46437;SDS011;32137;48.728;9.142;2023-07-16T14:05:02;4.30;;;1.88;;
46437;SDS011;32137;48.728;9.142;2023-07-16T14:07:29;3.75;;;1.90;;
46437;SDS011;32137;48.728;9.142;2023-07-16T14:09:55;7.18;;;1.92;;
46437;SDS011;32137;48.728;9.142;2023-07-16T14:12:20;2.72;;;1.40;;
46437;SDS011;32137;48.728;9.142;2023-07-16T14:14:46;3.70;;;1.70;;
46437;SDS011;32137;48.728;9.142;2023-07-16T14:17:12;3.25;;;1.63;;
46437;SDS011;32137;48.728;9.142;2023-07-16T14:19:37;3.97;;;2.00;;
46437;SDS011;32137;48.728;9.142;2023-07-16T14:22:03;4.53;;;1.70;;
46437;SDS011;32137;48.728;9.142;2023-07-16T14:24:33;4.35;;;1.27;;
46437;SDS011;32137;48.728;9.142;2023-07-16T14:26:58;3.10;;;1.55;;
46437;SDS011;32137;48.728;9.142;2023-07-16T14:29:27;2.95;;;1.60;;
46437;SDS011;32137;48.728;9.142;2023-07-16T14:31:54;3.92;;;1.77;;
46437;SDS011;32137;48.728;9.142;2023-07-16T14:34:20;2.38;;;1.40;;
46437;SDS011;32137;48.728;9.142;2023-07-16T14:36:45;3.65;;;1.80;;
46437;SDS011;32137;48.728;9.142;2023-07-16T14:39:11;3.17;;;1.67;;
46437;SDS011;32137;48.728;9.142;2023-07-16T14:41:38;4.75;;;1.50;;
46437;SDS011;32137;48.728;9.142;2023-07-16T14:44:04;2.58;;;1.73;;
46437;SDS011;32137;48.728;9.142;2023-07-16T14:46:30;4.65;;;1.90;;
46437;SDS011;32137;48.728;9.142;2023-07-16T14:48:56;3.10;;;1.73;;